Time;durP1;ratioP1;P1;durP2;ratioP2;P2;SDS_P1;SDS_P2;PMS_P1;PMS_P2;Temp;Humidity;BMP_temperature;BMP_pressure;BME280_temperature;BME280_humidity;BME280_pressure;Samples;Min_cycle;Max_cycle;Signal;HPM_P1;HPM_P2
2021/12/12 00:00:33;;;;;;;7.38;5.47;;;3.30;99.90;;;2.46;100.00;98034.94;5047774;28;20031;-86
2021/12/12 00:03:14;;;;;;;8.20;5.43;;;3.30;99.90;;;2.38;100.00;98031.41;5015054;28;20036;-87
2021/12/12 00:05:52;;;;;;;6.18;4.60;;;3.30;99.90;;;2.43;100.00;98030.56;5055076;28;20029;-86
2021/12/12 00:08:23;;;;;;;6.60;5.20;;;3.20;99.90;;;2.35;100.00;98014.03;5016811;28;20080;-87
2021/12/12 00:10:57;;;;;;;7.20;5.22;;;3.30;99.90;;;2.44;100.00;98034.91;5027225;28;20083;-87
2021/12/12 00:13:31;;;;;;;6.97;4.88;;;3.30;99.90;;;2.46;100.00;98037.53;5026517;28;20033;-88
2021/12/12 00:15:57;;;;;;;6.82;5.13;;;3.30;99.90;;;2.41;100.00;98032.28;5033815;28;20431;-87
2021/12/12 00:18:23;;;;;;;7.22;5.00;;;3.30;99.90;;;2.47;100.00;98050.53;5013981;28;20040;-87
2021/12/12 00:20:49;;;;;;;8.07;4.80;;;3.30;99.90;;;2.45;100.00;98054.00;5028851;28;20408;-86
2021/12/12 00:23:17;;;;;;;8.35;5.32;;;3.30;99.90;;;2.19;100.00;98015.69;5017455;28;20024;-86
2021/12/12 00:25:49;;;;;;;6.53;4.60;;;3.30;99.90;;;2.47;100.00;98060.06;5016839;28;20469;-86
2021/12/12 00:28:19;;;;;;;7.28;4.75;;;3.30;99.90;;;2.35;100.00;98028.75;5010297;28;20457;-88
2021/12/12 00:30:47;;;;;;;8.48;5.32;;;3.30;99.90;;;2.48;100.00;98048.81;5029436;28;20029;-86
2021/12/12 00:33:13;;;;;;;7.05;5.05;;;3.30;99.90;;;2.38;100.00;98027.03;5019186;28;20124;-87
2021/12/12 00:35:40;;;;;;;6.47;4.68;;;3.30;99.90;;;2.44;100.00;98058.34;5027184;28;20462;-86
2021/12/12 00:38:16;;;;;;;7.63;4.90;;;3.30;99.90;;;2.01;100.00;98000.81;5026552;28;20048;-86
2021/12/12 00:40:47;;;;;;;9.02;5.82;;;3.20;99.90;;;2.45;100.00;98064.41;5013861;28;20505;-86
2021/12/12 00:43:25;;;;;;;7.25;5.13;;;3.30;99.90;;;2.36;100.00;98065.22;5029726;28;20029;-87
2021/12/12 00:45:55;;;;;;;8.63;5.13;;;3.20;99.90;;;2.30;100.00;98067.78;5015752;28;20417;-87
2021/12/12 00:48:24;;;;;;;8.75;5.75;;;3.20;99.90;;;2.17;100.00;98065.97;5033608;28;20041;-87
2021/12/12 00:50:51;;;;;;;10.45;5.85;;;3.10;99.90;;;1.49;100.00;97975.28;5032865;28;20037;-88
2021/12/12 00:53:20;;;;;;;9.18;5.45;;;3.00;99.90;;;1.95;100.00;98054.53;5015421;28;20032;-88
2021/12/12 00:55:47;;;;;;;9.40;5.13;;;3.00;99.90;;;2.12;100.00;98075.44;5031769;28;20872;-87
2021/12/12 00:58:16;;;;;;;6.85;5.03;;;3.00;99.90;;;1.97;100.00;98058.00;5010829;28;20049;-87
2021/12/12 01:00:51;;;;;;;6.80;4.47;;;3.00;99.90;;;2.15;100.00;98084.16;5029024;28;20032;-87
2021/12/12 01:03:40;;;;;;;8.27;5.53;;;3.00;99.90;;;2.07;100.00;98086.72;5027657;28;20041;-87
2021/12/12 01:06:08;;;;;;;8.57;4.75;;;2.90;99.90;;;1.46;100.00;97996.06;5016767;28;20056;-87
2021/12/12 01:08:35;;;;;;;6.72;4.75;;;2.90;99.90;;;2.09;100.00;98086.72;5005474;28;20267;-86
2021/12/12 01:11:13;;;;;;;5.88;4.22;;;3.00;99.90;;;2.05;100.00;98077.16;5008271;28;20035;-86
2021/12/12 01:13:39;;;;;;;7.38;4.55;;;3.00;99.90;;;1.95;100.00;98060.59;5029088;28;20036;-87
2021/12/12 01:16:23;;;;;;;6.95;4.55;;;3.00;99.90;;;2.12;100.00;98104.06;5028197;28;20492;-87
2021/12/12 01:18:57;;;;;;;5.40;4.28;;;2.90;99.90;;;2.13;100.00;98098.88;5015751;28;20051;-87
2021/12/12 01:21:31;;;;;;;7.13;4.25;;;3.00;99.90;;;2.13;100.00;98100.63;5028655;28;20086;-86
2021/12/12 01:24:07;;;;;;;8.32;4.97;;;3.00;99.90;;;2.10;100.00;98107.56;5030303;28;20477;-88
2021/12/12 01:26:35;;;;;;;7.85;4.88;;;2.90;99.90;;;1.88;100.00;98069.22;5022613;28;20037;-85
2021/12/12 01:29:03;;;;;;;7.38;5.10;;;2.90;99.90;;;2.05;100.00;98088.44;5028655;28;20514;-87
2021/12/12 01:31:33;;;;;;;7.30;4.80;;;3.00;99.90;;;2.19;100.00;98100.66;5015155;28;20045;-87
2021/12/12 01:34:12;;;;;;;7.55;4.72;;;3.00;99.90;;;2.24;100.00;98112.00;5011305;28;20022;-86
2021/12/12 01:39:45;;;;;;;7.78;5.30;;;3.10;99.90;;;2.35;100.00;98099.06;5046798;28;20091;-86
2021/12/12 01:42:47;;;;;;;9.90;4.65;;;3.10;99.90;;;2.20;100.00;98071.19;5027444;28;20083;-87
2021/12/12 01:45:27;;;;;;;8.10;4.80;;;3.20;99.90;;;2.23;100.00;98086.84;5018319;28;20490;-87
2021/12/12 01:48:04;;;;;;;8.45;5.03;;;3.20;99.90;;;1.93;100.00;98057.09;5014277;28;20148;-87
2021/12/12 01:50:37;;;;;;;9.95;4.90;;;3.10;99.90;;;2.19;100.00;98101.56;5014266;28;20024;-87
2021/12/12 01:53:08;;;;;;;7.55;4.88;;;3.10;99.90;;;2.16;100.00;98098.94;5049754;28;20108;-86
2021/12/12 01:55:42;;;;;;;6.28;4.22;;;3.10;99.90;;;2.11;100.00;98095.41;5022410;28;20036;-88
2021/12/12 01:58:15;;;;;;;7.10;4.20;;;3.00;99.90;;;2.13;100.00;98096.28;5050191;28;20026;-87
2021/12/12 02:00:51;;;;;;;8.75;4.22;;;3.00;99.90;;;2.22;100.00;98118.91;5033638;28;20552;-88
2021/12/12 02:03:21;;;;;;;7.13;4.30;;;3.00;99.90;;;2.22;100.00;98109.38;5014866;28;20040;-88
2021/12/12 02:05:48;;;;;;;6.32;4.35;;;3.00;99.90;;;2.10;100.00;98088.47;5033743;28;20037;-87
2021/12/12 02:08:17;;;;;;;7.32;4.28;;;3.10;99.90;;;2.28;100.00;98116.38;5028419;28;20324;-86
2021/12/12 02:10:54;;;;;;;6.43;3.95;;;3.10;99.90;;;2.24;100.00;98109.38;5033300;28;20044;-88
2021/12/12 02:13:25;;;;;;;6.05;4.53;;;3.10;99.90;;;2.25;100.00;98122.41;5059278;28;20029;-86
2021/12/12 02:15:56;;;;;;;5.93;4.10;;;3.10;99.90;;;1.60;100.00;98032.56;5032999;28;20036;-87
2021/12/12 02:18:28;;;;;;;5.20;3.70;;;3.00;99.90;;;2.16;100.00;98117.13;5032358;28;20430;-87
2021/12/12 02:21:08;;;;;;;6.93;4.40;;;3.00;99.90;;;2.08;100.00;98113.59;5018898;28;20080;-87
2021/12/12 02:37:09;;;;;;;5.72;3.10;;;3.00;99.90;;;2.17;100.00;98149.22;5026492;28;20397;-87
2021/12/12 02:39:37;;;;;;;5.57;3.22;;;3.00;99.90;;;2.02;100.00;98119.63;5014556;28;20328;-86
2021/12/12 02:42:10;;;;;;;5.35;3.10;;;3.00;99.90;;;2.13;100.00;98140.53;5032560;28;20025;-86
2021/12/12 02:44:37;;;;;;;;;;;3.00;99.90;;;1.95;100.00;98112.63;5019473;28;20093;-86
2021/12/12 02:47:12;;;;;;;5.82;3.30;;;3.00;99.90;;;2.10;100.00;98133.59;5030616;28;19913;-86
2021/12/12 02:49:55;;;;;;;5.80;3.17;;;2.90;99.90;;;2.12;100.00;98135.31;5021163;28;20373;-87
2021/12/12 02:52:30;;;;;;;4.28;2.92;;;2.90;99.90;;;2.05;100.00;98119.66;5015143;28;20063;-87
2021/12/12 02:55:00;;;;;;;4.82;2.90;;;2.90;99.90;;;2.15;100.00;98136.19;5014641;28;20044;-86
2021/12/12 02:57:27;;;;;;;4.57;2.72;;;2.90;99.90;;;1.97;100.00;98104.84;5017670;28;20021;-87
2021/12/12 02:59:53;;;;;;;4.25;2.63;;;2.90;99.90;;;2.06;100.00;98130.94;5033616;28;20399;-86
2021/12/12 03:02:33;;;;;;;4.18;2.40;;;2.90;99.90;;;2.12;100.00;98131.00;5027200;28;20144;-87
2021/12/12 03:05:04;;;;;;;4.95;3.05;;;2.90;99.90;;;2.13;100.00;98124.06;5015633;28;20029;-88
2021/12/12 03:07:30;;;;;;;4.88;2.72;;;2.90;99.90;;;2.12;100.00;98120.59;5035620;28;20029;-86
2021/12/12 03:09:58;;;;;;;4.68;2.75;;;2.90;99.90;;;2.11;100.00;98113.63;5018184;28;20051;-87
2021/12/12 03:12:31;;;;;;;4.25;2.58;;;2.90;99.90;;;2.07;100.00;98112.72;5010705;28;20098;-88
2021/12/12 03:15:02;;;;;;;4.15;3.15;;;2.90;99.90;;;1.83;100.00;98094.31;5062163;28;20068;-88
2021/12/12 03:17:28;;;;;;;4.07;2.70;;;2.80;99.90;;;1.77;100.00;98087.31;5039887;28;20083;-86
2021/12/12 03:20:01;;;;;;;6.05;2.72;;;2.70;99.90;;;1.88;100.00;98124.72;5031359;28;20033;-87
2021/12/12 03:22:27;;;;;;;4.35;2.13;;;2.70;99.90;;;1.80;100.00;98126.38;5018987;28;20035;-86
2021/12/12 03:24:54;;;;;;;6.32;2.45;;;2.60;99.90;;;1.51;100.00;98093.16;5024120;28;20063;-87
2021/12/12 03:27:21;;;;;;;6.18;2.63;;;2.40;99.90;;;1.45;100.00;98120.81;5037207;28;20091;-88
2021/12/12 03:29:49;;;;;;;4.70;2.40;;;2.30;99.90;;;1.22;100.00;98116.25;5030397;28;20028;-87
2021/12/12 03:32:19;;;;;;;6.00;2.60;;;2.10;99.90;;;0.83;100.00;98082.84;5032921;28;20393;-88
2021/12/12 03:34:52;;;;;;;4.03;2.70;;;1.90;99.90;;;0.85;100.00;98120.97;5061554;22;20025;-43
2021/12/12 03:37:23;;;;;;;5.65;2.47;;;1.70;99.90;;;0.67;100.00;98118.13;5002155;28;20084;-42
2021/12/12 03:39:53;;;;;;;4.18;2.42;;;1.50;99.90;;;0.53;100.00;98120.53;5000404;28;20120;-41
2021/12/12 03:42:23;;;;;;;6.00;3.15;;;1.40;99.90;;;0.44;100.00;98134.22;5000173;28;20034;-43
2021/12/12 03:44:51;;;;;;;5.60;2.63;;;1.20;99.90;;;0.40;100.00;98140.25;4983248;28;20022;-41
2021/12/12 03:47:30;;;;;;;8.07;3.15;;;1.20;99.90;;;0.36;100.00;98146.25;5002022;28;20037;-41
2021/12/12 03:50:00;;;;;;;6.43;2.88;;;1.20;99.90;;;0.34;100.00;98147.91;5003551;28;20040;-41
2021/12/12 03:52:27;;;;;;;5.57;2.83;;;1.20;99.90;;;0.32;100.00;98139.22;5000841;28;20025;-41
2021/12/12 03:54:58;;;;;;;7.25;3.03;;;1.20;99.90;;;0.27;100.00;98136.59;5001537;28;20066;-41
2021/12/12 03:57:24;;;;;;;5.50;3.05;;;1.10;99.90;;;0.21;100.00;98139.06;5001774;28;20045;-40
2021/12/12 03:59:50;;;;;;;6.80;2.67;;;1.00;99.90;;;0.07;100.00;98128.50;4998278;28;20030;-42
2021/12/12 04:02:17;;;;;;;4.82;2.55;;;1.00;99.90;;;0.07;100.00;98133.69;5003495;28;20237;-41
2021/12/12 04:04:45;;;;;;;3.47;2.53;;;0.90;99.90;;;-0.02;100.00;98133.50;4999693;28;20121;-41
2021/12/12 04:07:23;;;;;;;8.95;2.70;;;0.80;99.90;;;-0.10;100.00;98137.69;5001024;28;20029;-41
2021/12/12 04:09:49;;;;;;;4.85;2.90;;;0.80;99.90;;;-0.17;100.00;98134.13;5002170;28;20034;-41
2021/12/12 04:12:18;;;;;;;5.40;3.10;;;0.70;99.90;;;-0.23;100.00;98136.63;5001691;28;20025;-40
2021/12/12 04:14:46;;;;;;;5.63;3.03;;;0.60;99.90;;;-0.29;100.00;98139.94;5002231;28;20034;-41
2021/12/12 04:17:20;;;;;;;8.63;2.97;;;0.60;99.90;;;-0.36;100.00;98138.09;5001019;28;20458;-41
2021/12/12 04:19:50;;;;;;;5.72;2.72;;;0.50;99.90;;;-0.42;100.00;98133.66;4999057;28;20132;-43
2021/12/12 04:22:16;;;;;;;6.15;2.80;;;0.50;99.90;;;-0.45;100.00;98132.75;5001650;28;20060;-43
2021/12/12 04:24:45;;;;;;;5.22;2.60;;;0.40;99.90;;;-0.50;100.00;98132.69;5001932;28;20053;-42
2021/12/12 04:27:14;;;;;;;6.78;2.95;;;0.30;99.90;;;-0.54;100.00;98135.16;5004518;28;20613;-41
2021/12/12 04:29:45;;;;;;;5.95;3.40;;;0.30;99.90;;;-0.59;100.00;98146.31;5000911;28;20536;-42
2021/12/12 04:32:15;;;;;;;5.43;3.00;;;0.30;99.90;;;-0.63;100.00;98133.28;4999419;28;20034;-43
2021/12/12 04:34:48;;;;;;;8.38;3.50;;;0.20;99.90;;;-0.68;100.00;98148.75;4992243;28;20044;-42
2021/12/12 04:37:16;;;;;;;5.88;2.78;;;0.20;99.90;;;-0.72;100.00;98149.50;5001205;28;20197;-40
2021/12/12 04:39:48;;;;;;;5.93;3.53;;;0.10;99.90;;;-0.75;100.00;98151.16;5001898;28;20333;-41
2021/12/12 04:42:31;;;;;;;4.80;3.30;;;0.10;99.90;;;-0.77;100.00;98154.63;4998787;28;20566;-41
2021/12/12 04:45:38;;;;;;;4.93;3.03;;;0.10;99.90;;;-0.81;100.00;98154.50;5002179;28;20065;-42
2021/12/12 04:51:32;;;;;;;7.05;3.63;;;0.00;99.90;;;-0.91;100.00;98162.97;4999719;28;20399;-41
2021/12/12 04:54:39;;;;;;;6.20;3.38;;;0.00;99.90;;;-0.96;100.00;98152.50;4980159;28;20499;-40
2021/12/12 04:57:36;;;;;;;5.97;3.40;;;0.00;99.90;;;-0.98;100.00;98161.94;4997570;28;20038;-40
2021/12/12 05:00:32;;;;;;;6.50;3.78;;;-0.10;99.90;;;-1.01;100.00;98160.16;4993610;28;20144;-42
2021/12/12 05:03:24;;;;;;;5.15;3.25;;;-0.10;99.90;;;-1.02;100.00;98163.59;4983807;28;20042;-42
2021/12/12 05:06:10;;;;;;;7.55;3.90;;;-0.10;99.90;;;-1.02;100.00;98163.59;5003145;28;20228;-41
2021/12/12 05:09:10;;;;;;;7.20;3.83;;;-0.10;99.90;;;-1.01;100.00;98167.91;5000005;28;20046;-40
2021/12/12 05:12:03;;;;;;;6.70;4.25;;;-0.10;99.90;;;-0.97;100.00;98158.50;4993408;28;20229;-41
2021/12/12 05:14:37;;;;;;;7.00;3.75;;;0.00;99.90;;;-0.93;100.00;98162.91;5002215;28;20041;-40
2021/12/12 05:17:11;;;;;;;6.25;3.42;;;0.00;99.90;;;-0.93;100.00;98162.03;4999146;28;20032;-41
2021/12/12 05:19:50;;;;;;;5.18;3.88;;;0.00;99.90;;;-1.00;100.00;98159.31;4983662;28;20687;-41
2021/12/12 05:22:22;;;;;;;5.53;3.45;;;0.00;99.90;;;-0.94;100.00;98165.47;4982964;28;20025;-40
2021/12/12 05:24:49;;;;;;;;;;;0.00;99.90;;;-0.96;100.00;98166.31;5000722;28;20030;-43
2021/12/12 05:27:20;;;;;;;4.72;3.15;;;0.00;99.90;;;-0.98;100.00;98167.13;4985742;28;20314;-42
2021/12/12 05:29:57;;;;;;;6.10;3.37;;;-0.10;99.90;;;-1.01;100.00;98165.31;4981096;28;20063;-41
2021/12/12 05:32:25;;;;;;;7.93;3.38;;;-0.10;99.90;;;-0.96;100.00;98168.88;4998489;28;20511;-42
2021/12/12 05:34:51;;;;;;;5.68;2.78;;;-0.10;99.90;;;-0.97;100.00;98164.56;4997185;28;20514;-42
2021/12/12 05:37:19;;;;;;;5.80;2.72;;;0.00;99.90;;;-0.96;100.00;98158.53;4984624;28;20022;-42
2021/12/12 05:39:47;;;;;;;4.47;2.97;;;0.00;99.90;;;-0.88;100.00;98165.59;4997294;28;20419;-42
2021/12/12 05:42:14;;;;;;;4.35;2.88;;;0.00;99.90;;;-0.80;100.00;98167.50;4982485;28;20307;-40
2021/12/12 05:44:42;;;;;;;4.68;2.90;;;0.10;99.90;;;-0.81;100.00;98168.34;4980514;28;20046;-43
2021/12/12 05:47:09;;;;;;;5.38;3.13;;;0.10;99.90;;;-0.71;100.00;98166.81;4995397;28;20081;-40
2021/12/12 05:49:39;;;;;;;5.32;2.75;;;0.20;99.90;;;-0.67;100.00;98168.59;5001607;28;20030;-41
2021/12/12 05:52:09;;;;;;;5.40;3.03;;;0.20;99.90;;;-0.81;100.00;98149.31;4999395;28;20053;-40
2021/12/12 05:54:35;;;;;;;4.80;2.90;;;0.20;99.90;;;-0.74;100.00;98169.34;5000816;28;20495;-41
2021/12/12 05:57:02;;;;;;;6.13;3.38;;;0.20;99.90;;;-0.69;100.00;98170.31;4982140;28;20045;-42
2021/12/12 05:59:30;;;;;;;6.38;3.38;;;0.20;99.90;;;-0.66;100.00;98166.91;5001366;28;20046;-41
2021/12/12 06:01:58;;;;;;;5.10;2.90;;;0.20;99.90;;;-0.69;100.00;98165.13;4979452;28;20026;-40
2021/12/12 06:04:25;;;;;;;6.00;3.47;;;0.20;99.90;;;-0.71;100.00;98163.34;4998750;28;20026;-41
2021/12/12 06:06:52;;;;;;;6.53;3.65;;;0.20;99.90;;;-0.71;100.00;98172.00;4980451;28;20529;-41
2021/12/12 06:09:23;;;;;;;4.45;2.95;;;0.20;99.90;;;-0.72;100.00;98170.22;4981460;28;20057;-40
2021/12/12 06:11:51;;;;;;;4.85;3.42;;;0.20;99.90;;;-0.75;100.00;98172.78;4997989;28;20026;-40
2021/12/12 06:14:17;;;;;;;6.20;3.50;;;0.20;99.90;;;-0.75;100.00;98177.97;4966689;28;20091;-43
2021/12/12 06:16:45;;;;;;;6.07;3.72;;;0.10;99.90;;;-0.75;100.00;98177.06;4981747;28;20045;-41
2021/12/12 06:19:21;;;;;;;7.13;4.32;;;0.20;99.90;;;-0.90;100.00;98154.31;4978622;28;20038;-40
2021/12/12 06:21:52;;;;;;;4.10;3.00;;;0.20;99.90;;;-0.72;100.00;98193.53;4995797;28;20026;-41
2021/12/12 06:24:21;;;;;;;5.57;3.15;;;0.20;99.90;;;-0.77;100.00;98195.19;4998431;28;20103;-40
2021/12/12 06:26:47;;;;;;;4.93;3.00;;;0.20;99.90;;;-0.81;100.00;98196.84;4997119;28;20403;-41
2021/12/12 06:29:14;;;;;;;5.60;3.30;;;0.20;99.90;;;-0.74;100.00;98210.78;5000527;28;20499;-41
2021/12/12 06:31:43;;;;;;;4.55;3.35;;;0.20;99.90;;;-0.72;100.00;98209.09;4997675;28;20049;-42
2021/12/12 06:34:11;;;;;;;4.57;3.10;;;0.20;99.90;;;-0.74;100.00;98210.78;4998760;28;20397;-41
2021/12/12 06:36:37;;;;;;;7.03;3.35;;;0.20;99.90;;;-0.78;100.00;98209.84;4999314;28;20503;-42
2021/12/12 06:39:07;;;;;;;6.18;3.53;;;0.20;99.90;;;-0.79;100.00;98212.41;5002103;28;20433;-41
2021/12/12 06:41:35;;;;;;;5.53;3.28;;;0.10;99.90;;;-0.86;100.00;98211.41;5003384;28;20037;-40
2021/12/12 06:44:07;;;;;;;4.85;3.17;;;0.10;99.90;;;-0.91;100.00;98207.84;5004838;28;20037;-41
2021/12/12 06:46:35;;;;;;;4.88;3.20;;;0.10;99.90;;;-0.96;100.00;98210.31;5002847;28;20290;-40
2021/12/12 06:49:05;;;;;;;6.03;3.15;;;0.00;99.90;;;-0.97;100.00;98221.53;5004497;28;20030;-42
2021/12/12 06:51:39;;;;;;;5.18;3.38;;;0.00;99.90;;;-0.99;100.00;98219.75;5002031;28;20125;-41
2021/12/12 06:54:07;;;;;;;5.35;3.33;;;0.00;99.90;;;-1.01;100.00;98221.41;5003854;28;20279;-40
2021/12/12 06:56:35;;;;;;;4.82;3.03;;;0.00;99.90;;;-1.00;100.00;98223.19;4986292;28;20042;-41
2021/12/12 06:59:03;;;;;;;5.32;3.55;;;-0.10;99.90;;;-1.02;100.00;98230.06;5003542;28;20029;-41
2021/12/12 07:01:32;;;;;;;4.43;3.20;;;-0.10;99.90;;;-1.04;100.00;98237.78;5002902;28;20068;-40
2021/12/12 07:03:59;;;;;;;5.63;3.53;;;-0.10;99.90;;;-1.06;100.00;98229.09;5001451;28;20030;-41
2021/12/12 07:06:28;;;;;;;6.28;3.40;;;-0.10;99.90;;;-1.08;100.00;98225.59;4992948;28;20064;-42
2021/12/12 07:08:58;;;;;;;5.10;3.35;;;-0.10;99.90;;;-1.04;100.00;98230.00;5001554;28;20121;-40
2021/12/12 07:11:27;;;;;;;6.07;3.75;;;-0.10;99.90;;;-1.01;100.00;98221.41;5001889;28;20038;-41
2021/12/12 07:13:54;;;;;;;4.68;3.20;;;-0.10;99.90;;;-1.05;100.00;98225.66;5002367;28;20152;-41
2021/12/12 07:16:22;;;;;;;5.40;3.35;;;-0.10;99.90;;;-1.02;100.00;98220.56;5001490;28;20037;-42
2021/12/12 07:18:51;;;;;;;4.95;3.80;;;-0.10;99.90;;;-1.04;100.00;98223.94;5003550;28;20702;-42
2021/12/12 07:21:18;;;;;;;4.13;3.33;;;-0.10;99.90;;;-1.02;100.00;98219.69;5003679;28;20026;-41
2021/12/12 07:23:45;;;;;;;5.93;3.80;;;-0.10;99.90;;;-0.98;100.00;98218.91;5001223;28;20325;-42
2021/12/12 07:26:14;;;;;;;7.15;4.40;;;0.00;99.90;;;-0.96;100.00;98225.84;4985312;28;20037;-41
2021/12/12 07:28:41;;;;;;;5.78;3.78;;;0.00;99.90;;;-0.97;100.00;98226.72;4985427;28;20705;-42
2021/12/12 07:31:24;;;;;;;7.43;4.25;;;0.00;99.90;;;-0.95;100.00;98224.16;5003041;28;20034;-42
2021/12/12 07:33:54;;;;;;;6.88;4.35;;;0.00;99.90;;;-0.88;100.00;98230.31;5000315;28;20025;-42
2021/12/12 07:36:22;;;;;;;7.07;4.60;;;0.00;99.90;;;-0.89;100.00;98231.19;4998246;28;20500;-41
2021/12/12 07:38:54;;;;;;;6.78;4.10;;;0.00;99.90;;;-0.85;100.00;98225.22;4998744;28;20403;-40
2021/12/12 07:41:24;;;;;;;8.05;4.28;;;0.10;99.90;;;-0.79;100.00;98230.53;4998274;28;20373;-41
2021/12/12 07:43:51;;;;;;;7.65;3.85;;;0.20;99.90;;;-0.77;100.00;98229.72;4999618;28;20117;-40
2021/12/12 07:46:19;;;;;;;5.88;4.05;;;0.20;99.90;;;-0.73;100.00;98233.25;4999827;28;20563;-41
2021/12/12 07:48:47;;;;;;;5.55;3.65;;;0.20;99.90;;;-0.66;100.00;98229.09;5000651;28;20061;-40
2021/12/12 07:51:15;;;;;;;6.60;3.80;;;0.30;99.90;;;-0.61;100.00;98236.13;5002434;28;20450;-44
2021/12/12 07:53:41;;;;;;;5.97;3.58;;;0.40;99.90;;;-0.50;100.00;98236.34;4995073;28;20036;-42
2021/12/12 07:56:08;;;;;;;5.57;3.40;;;0.50;99.90;;;-0.37;100.00;98232.25;5000857;28;20419;-40
2021/12/12 07:58:36;;;;;;;4.45;3.20;;;0.50;99.90;;;-0.26;100.00;98235.94;5002255;28;20038;-41
2021/12/12 08:01:05;;;;;;;5.63;3.85;;;0.70;99.90;;;0.06;100.00;98235.66;4999452;28;20027;-41
2021/12/12 08:03:35;;;;;;;6.05;3.40;;;0.90;99.90;;;0.23;100.00;98235.09;5002719;28;20487;-42
2021/12/12 08:06:01;;;;;;;5.18;3.55;;;1.10;99.90;;;0.43;100.00;98232.81;4997605;28;20033;-41
2021/12/12 08:08:28;;;;;;;4.88;2.90;;;1.30;99.90;;;0.57;100.00;98227.03;4998254;28;20033;-40
2021/12/12 08:10:57;;;;;;;6.13;3.20;;;1.50;99.90;;;0.72;100.00;98229.00;4999538;28;20519;-41
2021/12/12 08:13:24;;;;;;;4.60;2.90;;;1.60;99.90;;;0.79;100.00;98224.78;4999985;28;20038;-40
2021/12/12 08:15:50;;;;;;;4.60;3.03;;;1.80;99.90;;;0.90;100.00;98230.97;4998210;28;20130;-43
2021/12/12 08:18:18;;;;;;;3.15;2.63;;;1.90;99.90;;;1.07;100.00;98239.00;4984453;28;20473;-41
2021/12/12 08:20:47;;;;;;;4.97;2.90;;;2.10;99.90;;;1.25;100.00;98240.13;4999544;28;20033;-41
2021/12/12 08:23:15;;;;;;;3.38;2.60;;;2.20;99.90;;;1.46;100.00;98239.53;5000152;28;20513;-42
2021/12/12 08:25:43;;;;;;;3.85;2.60;;;2.40;99.90;;;1.63;100.00;98230.19;4982898;28;20034;-41
2021/12/12 08:28:09;;;;;;;3.63;2.50;;;2.50;99.90;;;1.71;100.00;98238.97;5002957;28;20458;-42
2021/12/12 08:30:36;;;;;;;3.53;2.47;;;2.60;99.90;;;1.90;100.00;98229.66;5002128;28;20037;-42
2021/12/12 08:33:06;;;;;;;3.13;2.22;;;2.70;99.90;;;2.01;100.00;98236.69;4999891;28;20299;-41
2021/12/12 08:35:33;;;;;;;2.85;2.10;;;2.90;99.90;;;2.08;100.00;98239.38;4997853;28;20395;-41
2021/12/12 08:38:03;;;;;;;2.65;1.90;;;2.90;99.90;;;1.91;100.00;98220.13;4994482;28;20025;-43
2021/12/12 08:40:37;;;;;;;2.10;1.60;;;3.00;99.90;;;2.16;100.00;98238.59;4998586;28;20049;-40
2021/12/12 08:43:09;;;;;;;4.07;2.10;;;3.00;99.90;;;2.20;100.00;98248.16;5000757;28;20567;-41
2021/12/12 08:45:36;;;;;;;3.38;2.22;;;3.00;99.90;;;2.18;100.00;98229.06;4999159;28;20307;-42
2021/12/12 08:48:03;;;;;;;3.20;2.20;;;3.00;99.90;;;2.16;100.00;98230.78;4984693;28;20660;-41
2021/12/12 08:50:33;;;;;;;3.83;2.58;;;3.00;99.90;;;2.18;100.00;98240.34;4999176;28;20109;-42
2021/12/12 08:53:02;;;;;;;5.32;2.47;;;3.00;99.90;;;2.04;100.00;98236.72;4999787;28;20018;-43
2021/12/12 08:55:36;;;;;;;3.13;2.10;;;3.00;99.90;;;2.09;100.00;98258.47;5000034;28;20044;-41
2021/12/12 08:58:14;;;;;;;3.42;2.22;;;2.90;99.90;;;2.09;100.00;98261.06;5002194;28;20068;-41
2021/12/12 09:01:07;;;;;;;4.13;2.30;;;2.90;99.90;;;2.03;100.00;98264.47;4998252;28;20030;-42
2021/12/12 09:03:58;;;;;;;2.70;1.80;;;3.00;99.90;;;2.09;100.00;98261.94;4989414;28;20108;-41
2021/12/12 09:06:33;;;;;;;2.75;2.00;;;2.90;99.90;;;2.14;100.00;98261.13;4997961;28;20168;-41
2021/12/12 09:09:13;;;;;;;2.20;1.75;;;3.00;99.90;;;2.19;100.00;98252.50;4996790;28;20034;-40
2021/12/12 09:12:05;;;;;;;3.97;1.92;;;3.00;99.90;;;2.23;100.00;98261.22;4987130;28;20041;-40
2021/12/12 09:14:46;;;;;;;3.63;1.80;;;3.00;99.90;;;2.28;100.00;98250.00;4981625;28;20637;-40
2021/12/12 09:17:43;;;;;;;2.63;1.60;;;3.10;99.90;;;2.38;100.00;98253.53;5000882;28;20042;-42
2021/12/12 09:20:32;;;;;;;4.07;1.60;;;3.20;99.90;;;2.32;100.00;98237.88;4982119;28;20038;-41
2021/12/12 09:23:12;;;;;;;3.78;1.75;;;3.30;99.90;;;2.47;100.00;98253.63;4982939;28;20036;-42
2021/12/12 09:25:51;;;;;;;2.45;1.60;;;3.30;99.90;;;2.50;100.00;98257.13;4991518;28;20389;-43
2021/12/12 09:28:16;;;;;;;2.38;1.70;;;3.30;99.90;;;2.46;99.04;98257.09;4998138;28;20094;-43
2021/12/12 09:30:43;;;;;;;2.22;1.60;;;3.40;99.90;;;2.52;99.68;98253.69;4994721;28;20443;-41
2021/12/12 09:33:24;;;;;;;2.72;1.42;;;3.40;99.90;;;2.61;97.93;98251.16;5001223;28;20025;-41
2021/12/12 09:36:07;;;;;;;1.83;1.38;;;3.50;99.90;;;2.77;97.97;98244.31;4990834;28;20042;-42
2021/12/12 09:38:50;;;;;;;;;;;3.60;99.90;;;2.86;96.04;98239.19;4999480;28;20054;-41
2021/12/12 09:41:45;;;;;;;2.97;1.45;;;3.70;99.90;;;3.04;94.64;98248.00;4994865;28;19926;-41
2021/12/12 09:44:42;;;;;;;4.55;1.60;;;3.80;99.90;;;3.10;94.36;98247.16;4982119;28;20053;-42
2021/12/12 09:53:50;;;;;;;2.00;1.52;;;4.00;99.90;;;3.34;92.07;98244.72;4996113;28;20036;-41
2021/12/12 09:56:37;;;;;;;2.20;1.30;;;4.10;99.90;;;3.60;89.75;98242.19;5002599;28;20611;-41
2021/12/12 09:59:23;;;;;;;5.10;1.45;;;4.40;99.90;;;3.79;88.80;98237.06;4997378;28;20038;-43
2021/12/12 10:02:23;;;;;;;1.20;1.10;;;4.60;99.90;;;3.93;86.96;98239.72;4998706;28;20112;-41
2021/12/12 10:05:32;;;;;;;2.42;1.60;;;4.70;99.90;;;4.02;87.17;98226.72;4982336;28;20034;-40
2021/12/12 10:08:28;;;;;;;2.63;1.60;;;4.80;99.90;;;4.11;86.89;98231.94;5000352;28;20037;-41
2021/12/12 10:11:07;;;;;;;4.30;1.50;;;4.90;99.90;;;4.22;85.17;98226.75;4983966;28;20037;-41
2021/12/12 10:14:09;;;;;;;2.47;1.27;;;5.00;99.90;;;4.34;85.53;98221.53;4996263;28;20396;-42
2021/12/12 10:17:01;;;;;;;1.55;1.30;;;5.10;99.90;;;4.37;85.63;98225.88;4989344;28;20112;-42
2021/12/12 10:19:41;;;;;;;4.27;1.20;;;5.20;99.90;;;4.51;84.44;98218.06;4999348;28;20514;-41
2021/12/12 10:22:27;;;;;;;4.50;1.35;;;5.20;99.90;;;4.54;82.78;98218.94;5004520;28;20285;-42
2021/12/12 10:25:07;;;;;;;2.30;1.15;;;5.40;99.90;;;4.55;81.45;98214.56;4985066;28;20134;-46
2021/12/12 10:28:00;;;;;;;3.78;1.00;;;5.40;99.90;;;4.53;81.39;98213.72;4985368;28;20080;-41
2021/12/12 10:30:40;;;;;;;2.95;1.10;;;5.40;99.90;;;4.60;81.83;98210.22;4983855;28;20046;-42
2021/12/12 10:33:28;;;;;;;2.13;1.00;;;5.40;99.90;;;4.61;79.56;98206.72;4985861;28;20030;-43
2021/12/12 10:35:58;;;;;;;3.97;1.10;;;5.40;99.90;;;4.68;81.56;98216.31;4984224;28;20214;-40
2021/12/12 10:38:42;;;;;;;1.38;1.23;;;5.50;99.90;;;4.74;80.64;98215.47;4983617;28;20026;-41
2021/12/12 10:41:18;;;;;;;2.75;1.33;;;5.50;99.90;;;4.77;81.37;98211.09;4986433;28;20038;-43
2021/12/12 10:44:01;;;;;;;6.18;1.35;;;5.60;99.90;;;4.85;80.37;98213.69;4998437;28;20037;-43
2021/12/12 10:46:35;;;;;;;5.43;1.60;;;5.60;99.90;;;5.00;79.71;98220.63;5001699;28;20426;-42
2021/12/12 10:49:17;;;;;;;8.13;1.42;;;5.70;99.90;;;5.08;79.39;98220.63;5004917;28;20497;-44
2021/12/12 10:52:12;;;;;;;6.18;1.42;;;5.80;99.90;;;5.20;79.56;98219.72;5000117;28;20034;-42
2021/12/12 10:54:58;;;;;;;1.75;0.90;;;5.90;99.90;;;5.20;78.01;98212.75;4983753;28;20080;-41
2021/12/12 10:57:34;;;;;;;5.18;1.30;;;6.00;99.90;;;5.31;77.83;98223.19;4997748;28;20034;-42
2021/12/12 11:00:13;;;;;;;4.38;1.20;;;6.10;99.90;;;5.37;76.72;98217.94;5001854;28;20033;-44
2021/12/12 11:03:09;;;;;;;5.43;1.45;;;6.20;99.90;;;5.47;74.61;98230.13;5000268;28;20484;-41
2021/12/12 11:05:48;;;;;;;5.25;1.10;;;6.30;99.90;;;5.58;75.99;98221.34;4984922;28;20048;-45
2021/12/12 11:08:57;;;;;;;3.10;1.40;;;6.30;99.90;;;5.69;75.18;98209.13;5002361;28;20079;-41
2021/12/12 11:11:48;;;;;;;1.90;0.90;;;6.50;99.90;;;5.80;75.05;98211.69;5001066;28;20061;-41
2021/12/12 11:16:58;;;;;;;6.60;1.15;;;6.70;99.90;;;6.03;72.39;98206.31;5015922;23;20153;-87
2021/12/12 11:19:42;;;;;;;2.85;0.95;;;6.80;99.90;;;6.06;74.75;98203.69;4978950;28;20029;-86
2021/12/12 11:22:15;;;;;;;5.80;1.40;;;6.80;99.90;;;6.04;74.34;98208.09;5002549;28;20033;-87